Time;durP1;ratioP1;P1;durP2;ratioP2;P2;SDS_P1;SDS_P2;PMS_P1;PMS_P2;Temp;Humidity;BMP_temperature;BMP_pressure;BME280_temperature;BME280_humidity;BME280_pressure;Samples;Min_cycle;Max_cycle;Signal;HPM_P1;HPM_P2
2021/01/18 00:00:11;;;;;;;36.77;22.87;;;;;;;-144.99;99.62;52556.13;5048768;28;20687;-74
2021/01/18 00:02:37;;;;;;;46.93;31.13;;;;;;;-144.99;100.00;52570.38;5051331;28;20652;-74
2021/01/18 00:05:04;;;;;;;38.17;25.10;;;;;;;-144.99;99.99;52637.66;5050593;28;20627;-74
2021/01/18 00:07:42;;;;;;;42.33;27.57;;;;;;;-144.99;100.00;52574.47;5052396;28;20656;-74
2021/01/18 00:10:10;;;;;;;41.13;27.13;;;;;;;-144.99;100.00;52554.09;5053011;28;20651;-74
2021/01/18 00:12:36;;;;;;;43.30;27.80;;;;;;;-144.99;100.00;52578.53;5049155;28;20734;-73
2021/01/18 00:15:03;;;;;;;37.87;26.53;;;;;;;-144.99;100.00;52621.34;5031037;28;20628;-73
2021/01/18 00:17:30;;;;;;;44.13;26.47;;;;;;;-144.99;100.00;52566.31;5029939;28;20643;-73
2021/01/18 00:19:56;;;;;;;40.27;26.77;;;;;;;-144.99;100.00;52592.81;5048184;28;21224;-74
2021/01/18 00:22:22;;;;;;;40.83;27.20;;;;;;;-144.99;100.00;52594.84;5037872;28;21075;-74
2021/01/18 00:24:49;;;;;;;50.93;28.40;;;;;;;-144.99;100.00;52578.53;5033614;28;20663;-74
2021/01/18 00:27:15;;;;;;;46.00;27.93;;;;;;;-144.99;100.00;52570.38;5038303;28;20658;-73
2021/01/18 00:29:41;;;;;;;40.33;26.57;;;;;;;-144.99;100.00;52566.31;5051201;28;20706;-73
2021/01/18 00:32:07;;;;;;;45.50;28.07;;;;;;;-144.99;100.00;52560.19;5051150;28;20652;-73
2021/01/18 00:34:33;;;;;;;39.47;26.07;;;;;;;-144.99;100.00;52550.00;5048864;28;21057;-74
2021/01/18 00:36:59;;;;;;;39.93;26.47;;;;;;;-144.99;100.00;52554.09;5050215;28;20953;-73
2021/01/18 00:39:25;;;;;;;44.53;30.37;;;;;;;-144.99;100.00;52570.38;5050376;28;20678;-73
2021/01/18 00:41:52;;;;;;;42.17;25.60;;;;;;;-144.99;100.00;52558.16;5037087;28;20735;-73
2021/01/18 00:44:19;;;;;;;52.83;32.70;;;;;;;-144.99;100.00;52554.09;5030841;28;21092;-73
2021/01/18 00:46:45;;;;;;;42.20;29.17;;;;;;;-144.99;100.00;52550.00;5031050;28;20719;-73
2021/01/18 00:49:11;;;;;;;45.77;30.00;;;;;;;-144.99;100.00;52545.94;5028192;28;20632;-73
2021/01/18 00:51:38;;;;;;;49.37;28.87;;;;;;;-144.99;100.00;52584.66;5031322;28;20695;-73
2021/01/18 00:54:05;;;;;;;39.13;27.03;;;;;;;-144.99;100.00;52603.00;5034946;28;20723;-75
2021/01/18 00:56:32;;;;;;;46.47;29.97;;;;;;;-144.99;100.00;52584.66;5036130;28;20660;-74
2021/01/18 00:58:59;;;;;;;49.50;27.80;;;;;;;-144.99;100.00;52562.25;5038156;28;20652;-74
2021/01/18 01:01:25;;;;;;;46.20;27.97;;;;;;;-144.99;100.00;52578.53;5052388;28;20636;-74
2021/01/18 01:03:51;;;;;;;41.97;29.77;;;;;;;-144.99;100.00;52590.78;5049706;28;21082;-74
2021/01/18 01:06:17;;;;;;;47.13;31.20;;;;;;;-144.99;100.00;52584.66;5050559;28;20722;-74
2021/01/18 01:08:43;;;;;;;50.00;28.47;;;;;;;-144.99;100.00;52617.28;5051408;28;20624;-74
2021/01/18 01:11:09;;;;;;;47.93;29.03;;;;;;;-144.99;100.00;52556.13;5051055;28;20624;-74
2021/01/18 01:13:35;;;;;;;43.60;28.87;;;;;;;-144.99;100.00;52578.53;5041177;28;20982;-73
2021/01/18 01:16:03;;;;;;;42.73;28.17;;;;;;;-144.99;100.00;52550.00;5044759;28;20644;-74
2021/01/18 01:18:29;;;;;;;46.80;31.10;;;;;;;-144.99;100.00;52582.63;5037485;28;20648;-74
2021/01/18 01:20:55;;;;;;;50.63;27.90;;;;;;;-144.99;100.00;52603.00;5047421;28;20732;-74
2021/01/18 01:23:21;;;;;;;42.40;27.37;;;;;;;-144.99;100.00;52521.47;5031894;28;21011;-73
2021/01/18 01:25:47;;;;;;;50.50;27.73;;;;;;;-144.99;100.00;52582.63;5041303;28;21200;-72
2021/01/18 01:28:13;;;;;;;48.83;33.00;;;;;;;-144.99;100.00;52576.50;5042395;28;21062;-74
2021/01/18 01:30:39;;;;;;;50.57;28.90;;;;;;;-144.99;100.00;52517.41;5029626;28;20631;-72
2021/01/18 01:33:06;;;;;;;49.97;29.07;;;;;;;-144.99;100.00;52578.53;5068878;22;20822;-80
2021/01/18 01:35:32;;;;;;;50.87;31.73;;;;;;;-144.99;100.00;52550.00;5041714;28;20624;-79
2021/01/18 01:37:59;;;;;;;48.33;27.80;;;;;;;-144.99;100.00;52564.28;5039175;28;20663;-79
2021/01/18 01:40:25;;;;;;;55.80;29.77;;;;;;;-144.99;100.00;52529.63;5041458;28;20655;-78
2021/01/18 01:42:51;;;;;;;48.77;28.40;;;;;;;-144.99;100.00;52596.88;5029945;28;20669;-79
2021/01/18 01:45:19;;;;;;;50.07;31.63;;;;;;;-144.99;100.00;52564.28;5045776;28;20688;-80
2021/01/18 01:47:46;;;;;;;49.67;29.17;;;;;;;-144.99;100.00;52574.47;5050613;28;20623;-79
2021/01/18 01:50:16;;;;;;;52.57;30.07;;;;;;;-144.99;100.00;52558.16;5045518;28;20621;-80
2021/01/18 01:52:47;;;;;;;51.87;29.27;;;;;;;-144.99;100.00;52590.78;5053920;28;20643;-81
2021/01/18 01:55:23;;;;;;;47.37;30.40;;;;;;;-144.99;100.00;52598.94;5061996;28;20634;-79
2021/01/18 01:57:50;;;;;;;48.37;28.63;;;;;;;-144.99;100.00;52554.09;5063052;28;20624;-80
2021/01/18 02:00:18;;;;;;;50.43;29.50;;;;;;;-144.99;100.00;52588.75;5058577;28;20662;-79
2021/01/18 02:02:44;;;;;;;59.67;32.93;;;;;;;-144.99;100.00;52590.78;5054677;28;20745;-78
2021/01/18 02:05:13;;;;;;;47.87;30.50;;;;;;;-144.99;100.00;52603.00;5049739;28;20711;-75
2021/01/18 02:07:41;;;;;;;56.80;30.23;;;;;;;-144.99;100.00;52566.31;5049636;28;20681;-74
2021/01/18 02:10:08;;;;;;;50.97;31.50;;;;;;;-144.99;100.00;52554.09;5049019;28;20675;-77
2021/01/18 02:12:35;;;;;;;51.33;33.10;;;;;;;-144.99;100.00;52594.84;5052649;28;20733;-75
2021/01/18 02:15:17;;;;;;;46.23;29.10;;;;;;;-144.99;100.00;52533.69;5032553;28;20663;-74
2021/01/18 02:17:54;;;;;;;47.30;31.53;;;;;;;-144.99;100.00;52566.31;5033528;28;21142;-75
2021/01/18 02:20:52;;;;;;;51.77;32.63;;;;;;;-144.99;100.00;52580.59;5062987;28;20681;-74
2021/01/18 02:24:09;;;;;;;54.63;29.70;;;;;;;-144.99;100.00;52586.69;5040045;28;21076;-74
2021/01/18 02:27:00;;;;;;;58.73;30.77;;;;;;;-144.99;100.00;52554.09;5044634;28;20723;-75
2021/01/18 02:29:37;;;;;;;52.40;31.53;;;;;;;-144.99;100.00;52568.34;5032172;28;20641;-74
2021/01/18 02:32:35;;;;;;;50.17;29.27;;;;;;;-144.99;100.00;52588.75;5030330;28;20663;-75
2021/01/18 02:35:18;;;;;;;53.87;31.80;;;;;;;-144.99;100.00;52582.63;5020811;28;20763;-75
2021/01/18 02:38:06;;;;;;;57.10;30.67;;;;;;;-144.99;100.00;52598.94;5031886;28;20811;-73
2021/01/18 02:40:41;;;;;;;53.60;29.70;;;;;;;-144.99;100.00;52584.66;5040318;28;20667;-74
2021/01/18 02:43:10;;;;;;;53.10;30.37;;;;;;;-144.99;100.00;52523.50;5031803;28;21085;-74
2021/01/18 02:45:38;;;;;;;49.13;28.13;;;;;;;-144.99;100.00;52574.47;5031585;28;20616;-73
2021/01/18 02:48:05;;;;;;;53.67;31.33;;;;;;;-144.99;100.00;52545.94;5030869;28;20731;-73
2021/01/18 02:50:32;;;;;;;48.93;31.00;;;;;;;-144.99;100.00;52558.16;5031172;28;20813;-72
2021/01/18 02:53:01;;;;;;;59.60;34.97;;;;;;;-144.99;100.00;52562.25;5032001;28;20781;-74
2021/01/18 02:55:27;;;;;;;62.20;36.27;;;;;;;-144.99;100.00;52578.53;5032400;28;21054;-73
2021/01/18 02:57:57;;;;;;;63.00;32.73;;;;;;;-144.99;100.00;52578.53;5031773;28;20719;-73
2021/01/18 03:00:28;;;;;;;57.20;33.27;;;;;;;-144.99;100.00;52529.63;5048767;28;21238;-74
2021/01/18 03:03:04;;;;;;;46.33;25.57;;;;;;;-144.99;100.00;52582.63;5051213;28;21084;-74
2021/01/18 03:05:52;;;;;;;48.60;31.03;;;;;;;-144.99;100.00;52586.69;5050792;28;20623;-72
2021/01/18 03:08:27;;;;;;;53.13;31.17;;;;;;;-144.99;100.00;52529.63;5051942;28;20659;-75
2021/01/18 03:11:00;;;;;;;57.83;30.87;;;;;;;-144.99;100.00;52566.31;5050985;28;21104;-75
2021/01/18 03:13:32;;;;;;;58.17;29.83;;;;;;;-144.99;100.00;52566.31;5049134;28;20731;-73
2021/01/18 03:16:03;;;;;;;62.63;31.93;;;;;;;-144.99;100.00;52586.69;5031214;28;20674;-74
2021/01/18 03:18:33;;;;;;;52.37;29.43;;;;;;;-144.99;100.00;52598.94;5038274;28;20652;-74
2021/01/18 03:21:00;;;;;;;58.73;31.33;;;;;;;-144.99;100.00;52594.84;5061394;28;21055;-75
2021/01/18 03:23:27;;;;;;;53.63;29.43;;;;;;;-144.99;100.00;52554.09;5040389;28;20802;-74
2021/01/18 03:25:55;;;;;;;58.60;33.20;;;;;;;-144.99;100.00;52582.63;5048266;28;20662;-74
2021/01/18 03:28:23;;;;;;;60.47;30.73;;;;;;;-144.99;100.00;52574.47;5031695;28;21188;-76
2021/01/18 03:30:50;;;;;;;55.80;33.27;;;;;;;-144.99;100.00;52570.38;5030440;28;21261;-76
2021/01/18 03:33:17;;;;;;;63.47;30.57;;;;;;;-144.99;100.00;52576.50;5030080;28;21174;-75
2021/01/18 03:35:44;;;;;;;56.20;29.63;;;;;;;-144.99;100.00;52566.31;5030514;28;21278;-74
2021/01/18 03:38:10;;;;;;;50.47;27.07;;;;;;;-144.99;100.00;52570.38;5032034;28;20601;-75
2021/01/18 03:40:38;;;;;;;51.50;28.60;;;;;;;-144.99;100.00;52541.84;5038497;28;20686;-78
2021/01/18 03:43:07;;;;;;;45.13;28.33;;;;;;;-144.99;100.00;52582.63;5031333;28;20752;-77
2021/01/18 03:45:35;;;;;;;47.43;28.07;;;;;;;-144.99;100.00;52566.31;5036459;28;20643;-77
2021/01/18 03:48:02;;;;;;;48.67;27.37;;;;;;;-144.99;100.00;52566.31;5050926;28;20662;-80
2021/01/18 03:50:28;;;;;;;43.07;25.40;;;;;;;-144.99;100.00;52574.47;5050049;28;20623;-80
2021/01/18 03:52:55;;;;;;;46.03;26.03;;;;;;;-144.99;100.00;52517.41;5039103;28;20680;-79
2021/01/18 03:55:21;;;;;;;41.83;24.03;;;;;;;-144.99;100.00;52594.84;5039113;28;20715;-79
2021/01/18 03:57:50;;;;;;;43.27;25.87;;;;;;;-144.99;100.00;52578.53;5031097;28;20652;-78
2021/01/18 04:00:17;;;;;;;57.47;25.67;;;;;;;-144.99;100.00;52517.41;5040366;28;20672;-79
2021/01/18 04:02:45;;;;;;;52.63;24.63;;;;;;;-144.99;100.00;52566.31;5043785;28;20671;-80
2021/01/18 04:05:12;;;;;;;46.33;25.57;;;;;;;-144.99;100.00;52543.91;5029387;28;20996;-78
2021/01/18 04:07:38;;;;;;;45.60;21.53;;;;;;;-144.99;100.00;52552.03;5045600;28;21212;-78
2021/01/18 04:10:06;;;;;;;37.27;21.23;;;;;;;-144.99;100.00;52550.00;5042247;28;20664;-78
2021/01/18 04:12:32;;;;;;;37.60;21.73;;;;;;;-144.99;100.00;52558.16;5038014;28;20650;-78
2021/01/18 04:14:59;;;;;;;47.07;23.10;;;;;;;-144.99;100.00;52545.94;5030810;28;20660;-78
2021/01/18 04:17:25;;;;;;;42.63;23.90;;;;;;;-144.99;100.00;52533.69;5030317;28;20667;-80
2021/01/18 04:19:51;;;;;;;37.10;20.17;;;;;;;-144.99;100.00;52541.84;5055011;28;20641;-78
2021/01/18 04:22:17;;;;;;;41.03;24.30;;;;;;;-144.99;100.00;52554.09;5055404;28;21020;-77
2021/01/18 04:24:44;;;;;;;36.13;21.57;;;;;;;-144.99;100.00;52554.09;5033268;28;20711;-78
2021/01/18 04:27:10;;;;;;;42.63;24.53;;;;;;;-144.99;100.00;52578.53;5050559;28;21096;-78
2021/01/18 04:29:36;;;;;;;40.57;21.70;;;;;;;-144.99;100.00;52566.31;5029535;28;21270;-78
2021/01/18 04:32:04;;;;;;;42.70;22.83;;;;;;;-144.99;100.00;52562.25;5033231;28;20664;-78
2021/01/18 04:34:30;;;;;;;39.57;20.40;;;;;;;-144.99;100.00;52545.94;5040159;28;20694;-78
2021/01/18 04:36:56;;;;;;;35.63;20.17;;;;;;;-144.99;100.00;52537.78;5039829;28;21085;-75
2021/01/18 04:39:23;;;;;;;38.67;19.50;;;;;;;-144.99;100.00;52594.84;5038192;28;21106;-77
2021/01/18 04:41:49;;;;;;;37.10;20.63;;;;;;;-144.99;100.00;52574.47;5039539;28;20752;-77
2021/01/18 04:44:16;;;;;;;39.33;19.87;;;;;;;-144.99;100.00;52607.09;5029653;28;21214;-77
2021/01/18 04:46:45;;;;;;;46.27;23.30;;;;;;;-144.99;100.00;52580.59;5030209;28;21229;-76
2021/01/18 04:49:14;;;;;;;33.30;18.83;;;;;;;-144.99;100.00;52586.69;5027752;28;20676;-77
2021/01/18 04:51:42;;;;;;;39.60;20.00;;;;;;;-144.99;100.00;52566.31;5030448;28;20751;-78
2021/01/18 04:54:15;;;;;;;44.70;18.37;;;;;;;-144.99;100.00;52545.94;5039270;28;20735;-78
2021/01/18 04:57:05;;;;;;;29.10;16.87;;;;;;;-144.99;100.00;52586.69;5034008;28;20731;-77
2021/01/18 04:59:38;;;;;;;33.23;16.47;;;;;;;-144.99;100.00;52574.47;5041753;28;21257;-74
2021/01/18 05:02:07;;;;;;;45.37;19.83;;;;;;;-144.99;100.00;52554.09;5050204;28;20689;-75
2021/01/18 05:04:38;;;;;;;35.13;18.47;;;;;;;-144.99;100.00;52521.47;5047590;28;20631;-75
2021/01/18 05:07:32;;;;;;;28.73;17.73;;;;;;;-144.99;100.00;52580.59;5050255;28;20977;-77
2021/01/18 05:10:05;;;;;;;31.00;17.07;;;;;;;-144.99;100.00;52539.81;5049647;28;21069;-78
2021/01/18 05:12:32;;;;;;;33.37;19.83;;;;;;;-144.99;100.00;52550.00;5054397;28;20685;-76
2021/01/18 05:14:58;;;;;;;28.40;18.63;;;;;;;-144.99;100.00;52580.59;5029948;28;20635;-75
2021/01/18 05:17:43;;;;;;;36.27;19.27;;;;;;;-144.99;100.00;52590.78;5046162;28;20614;-76
2021/01/18 05:20:12;;;;;;;29.23;17.60;;;;;;;-144.99;100.00;52574.47;5047963;28;20714;-75
2021/01/18 05:22:41;;;;;;;23.87;14.13;;;;;;;-144.99;100.00;52580.59;5052372;28;21094;-74
2021/01/18 05:25:09;;;;;;;33.33;16.10;;;;;;;-144.99;100.00;52594.84;5051115;28;21280;-75
2021/01/18 05:27:59;;;;;;;32.47;15.57;;;;;;;-144.99;100.00;52562.25;5034277;28;20645;-77
2021/01/18 05:30:25;;;;;;;25.07;14.70;;;;;;;-144.99;100.00;52545.94;5028825;28;20655;-74
2021/01/18 05:33:04;;;;;;;37.00;15.53;;;;;;;-144.99;100.00;52564.28;5030531;28;20730;-72
2021/01/18 05:35:32;;;;;;;25.40;16.07;;;;;;;-144.99;100.00;52550.00;5038554;28;20630;-69
2021/01/18 05:38:01;;;;;;;23.33;13.77;;;;;;;-144.99;100.00;52537.78;5040586;28;20621;-73
2021/01/18 05:40:34;;;;;;;30.37;14.53;;;;;;;-144.99;100.00;52580.59;5043819;28;20658;-72
2021/01/18 05:43:02;;;;;;;26.30;13.17;;;;;;;-144.99;100.00;52570.38;5028871;28;20736;-73
2021/01/18 05:45:34;;;;;;;21.93;11.07;;;;;;;-144.99;100.00;52566.31;5043643;28;20628;-73
2021/01/18 05:48:00;;;;;;;27.17;15.10;;;;;;;-144.99;100.00;52588.75;5027383;28;20645;-73
2021/01/18 05:50:28;;;;;;;24.97;13.80;;;;;;;-144.99;100.00;52521.47;5028482;28;20617;-73
2021/01/18 05:52:56;;;;;;;26.13;14.43;;;;;;;-144.99;100.00;52533.69;5029372;28;20668;-73
2021/01/18 05:55:25;;;;;;;20.73;11.80;;;;;;;-144.99;100.00;52550.00;5036812;28;20656;-73
2021/01/18 05:57:53;;;;;;;19.23;11.80;;;;;;;-144.99;100.00;52603.00;5035141;28;20659;-72
2021/01/18 06:00:24;;;;;;;28.93;12.43;;;;;;;-144.99;100.00;52527.59;5045461;28;20758;-73
2021/01/18 06:02:51;;;;;;;19.50;12.40;;;;;;;-144.99;100.00;52507.19;5042720;28;20697;-73
2021/01/18 06:05:23;;;;;;;18.77;11.73;;;;;;;-144.99;100.00;52550.00;5033469;28;21140;-72
2021/01/18 06:07:50;;;;;;;35.83;16.80;;;;;;;-144.99;100.00;52545.94;5045289;28;20787;-72
2021/01/18 06:10:18;;;;;;;20.20;11.60;;;;;;;-144.99;100.00;52562.25;5048003;28;21032;-73
2021/01/18 06:12:44;;;;;;;22.83;11.00;;;;;;;-144.99;100.00;52545.94;5047174;28;20651;-73
2021/01/18 06:15:13;;;;;;;21.23;10.90;;;;;;;-144.99;100.00;52521.47;5048095;28;20726;-73
2021/01/18 06:17:44;;;;;;;16.53;10.33;;;;;;;-144.99;100.00;52558.16;5046134;28;20636;-73
2021/01/18 06:20:18;;;;;;;23.90;10.07;;;;;;;-144.99;100.00;52574.47;5046476;28;20766;-71
2021/01/18 06:22:49;;;;;;;24.10;11.07;;;;;;;-144.99;100.00;52562.25;5048370;28;21000;-72
2021/01/18 06:25:15;;;;;;;24.77;10.80;;;;;;;-144.99;100.00;52578.53;5049003;28;20720;-72
2021/01/18 06:27:42;;;;;;;18.67;10.90;;;;;;;-144.99;100.00;52574.47;5060962;28;20676;-72
2021/01/18 06:30:21;;;;;;;25.37;13.73;;;;;;;-144.99;100.00;52529.63;5027836;28;20667;-73
2021/01/18 06:32:50;;;;;;;17.50;9.00;;;;;;;-144.99;100.00;52521.47;5030279;28;20672;-73
2021/01/18 06:35:24;;;;;;;20.63;9.97;;;;;;;-144.99;100.00;52574.47;5047066;28;20711;-73
2021/01/18 06:37:58;;;;;;;31.40;8.67;;;;;;;-144.99;100.00;52521.47;5046599;28;21315;-71
2021/01/18 06:40:30;;;;;;;27.30;8.93;;;;;;;-144.99;100.00;52554.09;5046138;28;20732;-73
2021/01/18 06:42:58;;;;;;;24.60;8.50;;;;;;;-144.99;100.00;52550.00;5028939;28;20699;-72
2021/01/18 06:45:31;;;;;;;17.03;9.67;;;;;;;-144.99;100.00;52545.94;5028090;28;21375;-73
2021/01/18 06:47:57;;;;;;;19.63;8.17;;;;;;;-144.99;100.00;52570.38;5035989;28;20627;-72
2021/01/18 06:50:32;;;;;;;26.80;8.17;;;;;;;-144.99;100.00;52509.25;5045465;28;20616;-73
2021/01/18 06:53:17;;;;;;;39.93;9.50;;;;;;;-144.99;100.00;52533.69;5029038;28;20640;-74
2021/01/18 06:56:31;;;;;;;31.80;10.07;;;;;;;-144.99;100.00;52562.25;5041401;28;20664;-73
2021/01/18 06:59:05;;;;;;;20.27;8.77;;;;;;;-144.99;100.00;52521.47;5028820;28;20797;-72
2021/01/18 07:01:34;;;;;;;11.67;9.27;;;;;;;-144.99;100.00;52525.56;5038811;28;20632;-74
2021/01/18 07:04:05;;;;;;;22.03;7.13;;;;;;;-144.99;100.00;52558.16;5037247;28;20640;-72
2021/01/18 07:06:33;;;;;;;12.27;6.70;;;;;;;-144.99;100.00;52547.97;5050623;28;20624;-72
2021/01/18 07:09:03;;;;;;;22.77;9.37;;;;;;;-144.99;100.00;52545.94;5049775;28;20723;-73
2021/01/18 07:11:29;;;;;;;18.00;8.03;;;;;;;-144.99;100.00;52566.31;5041045;28;20731;-72
2021/01/18 07:13:56;;;;;;;30.73;11.00;;;;;;;-144.99;100.00;52545.94;5052897;28;21010;-72
2021/01/18 07:16:24;;;;;;;16.63;8.03;;;;;;;-144.99;100.00;52529.63;5031198;28;20640;-72
2021/01/18 07:18:56;;;;;;;31.73;9.23;;;;;;;-144.99;100.00;52558.16;5048341;28;20784;-74
2021/01/18 07:21:26;;;;;;;19.60;7.00;;;;;;;-144.99;100.00;52562.25;5041310;28;20725;-73
2021/01/18 07:23:58;;;;;;;11.20;7.77;;;;;;;-144.99;100.00;52566.31;5048994;28;21098;-73
2021/01/18 07:26:53;;;;;;;17.63;10.07;;;;;;;-144.99;100.00;52545.94;5039751;28;20633;-73
2021/01/18 07:29:21;;;;;;;14.73;7.77;;;;;;;-144.99;100.00;52505.16;5043904;28;20627;-73
2021/01/18 07:31:51;;;;;;;12.43;5.93;;;;;;;-144.99;100.00;52541.84;5048826;28;20661;-73
2021/01/18 07:34:18;;;;;;;22.43;7.67;;;;;;;-144.99;100.00;52562.25;5059292;22;21100;-76
2021/01/18 07:36:45;;;;;;;11.70;7.00;;;;;;;-144.99;100.00;52562.25;5049931;28;20650;-75
2021/01/18 07:39:39;;;;;;;16.73;8.90;;;;;;;-144.99;100.00;52537.78;5043556;28;20667;-74
2021/01/18 07:42:06;;;;;;;23.27;9.77;;;;;;;-144.99;100.00;52541.84;5016399;28;21043;-75
2021/01/18 07:44:38;;;;;;;18.27;9.27;;;;;;;-144.99;100.00;52545.94;5031728;28;20660;-77
2021/01/18 07:47:07;;;;;;;14.77;11.33;;;;;;;-144.99;100.00;52525.56;5032046;28;20681;-76
2021/01/18 07:49:38;;;;;;;18.90;10.30;;;;;;;-144.99;100.00;52578.53;5028641;28;21166;-76
2021/01/18 07:52:25;;;;;;;15.23;8.10;;;;;;;-144.99;100.00;52529.63;5027180;28;21035;-75
2021/01/18 07:54:52;;;;;;;19.00;11.23;;;;;;;-144.99;100.00;52578.53;5031268;28;20663;-76
2021/01/18 07:57:40;;;;;;;18.00;9.47;;;;;;;-144.99;100.00;52568.34;5023029;28;20612;-76
2021/01/18 08:00:29;;;;;;;20.37;9.83;;;;;;;-144.99;100.00;52560.19;5031555;28;20678;-76
2021/01/18 08:03:26;;;;;;;13.03;8.13;;;;;;;-144.99;100.00;52560.19;5031436;28;20653;-76
2021/01/18 08:06:09;;;;;;;19.87;9.37;;;;;;;-144.99;100.00;52550.00;5021435;28;20635;-76
2021/01/18 08:08:37;;;;;;;17.63;10.07;;;;;;;-144.99;100.00;52517.41;5031849;28;20625;-73
2021/01/18 08:11:06;;;;;;;23.50;10.47;;;;;;;-144.99;100.00;52564.28;5030589;28;20652;-76
2021/01/18 08:13:54;;;;;;;16.67;9.47;;;;;;;-144.99;100.00;52582.63;5028343;28;20977;-76
2021/01/18 08:16:25;;;;;;;21.50;9.90;;;;;;;-144.99;100.00;52558.16;5031711;28;20623;-76
2021/01/18 08:19:08;;;;;;;20.90;10.77;;;;;;;-144.99;100.00;52541.84;5024622;28;20745;-74
2021/01/18 08:21:54;;;;;;;15.20;9.93;;;;;;;-144.99;100.00;52490.91;5021414;28;20728;-76
2021/01/18 08:24:55;;;;;;;20.97;11.27;;;;;;;-144.99;100.00;52562.25;5032012;28;20743;-75
2021/01/18 08:27:46;;;;;;;20.67;9.87;;;;;;;-144.99;100.00;52594.84;5023028;28;20643;-75
2021/01/18 08:30:21;;;;;;;22.90;10.43;;;;;;;-144.99;100.00;52562.25;5018607;28;20686;-76
2021/01/18 08:33:05;;;;;;;21.87;12.03;;;;;;;-144.99;100.00;52533.69;5027078;28;20640;-77
2021/01/18 08:35:43;;;;;;;18.40;10.00;;;;;;;-144.99;100.00;52537.78;5026144;28;20714;-76
2021/01/18 08:38:19;;;;;;;26.77;11.83;;;;;;;-144.99;100.00;52566.31;5032235;28;20636;-76
2021/01/18 08:40:48;;;;;;;22.33;10.43;;;;;;;-144.99;100.00;52529.63;5035595;28;20648;-77
2021/01/18 08:43:16;;;;;;;27.80;13.83;;;;;;;-144.99;100.00;52525.56;5031341;28;20655;-75
2021/01/18 08:45:44;;;;;;;21.20;11.13;;;;;;;-144.99;100.00;52550.00;5035840;28;20644;-76
2021/01/18 08:48:12;;;;;;;24.63;10.67;;;;;;;-144.99;100.00;52525.56;5030168;28;20724;-76
2021/01/18 08:50:43;;;;;;;18.83;10.70;;;;;;;-144.99;100.00;52513.31;5030812;28;20616;-76
2021/01/18 08:53:27;;;;;;;22.87;10.50;;;;;;;-144.99;100.00;52570.38;5031595;28;21225;-75
2021/01/18 08:55:54;;;;;;;22.00;13.53;;;;;;;-144.99;100.00;52578.53;5020406;28;20643;-77
2021/01/18 08:58:38;;;;;;;30.03;13.47;;;;;;;-144.99;100.00;52541.84;5031511;28;20639;-77
2021/01/18 09:01:08;;;;;;;25.63;12.23;;;;;;;-144.99;100.00;52554.09;5044219;28;20651;-77
2021/01/18 09:03:35;;;;;;;28.73;10.40;;;;;;;-144.99;100.00;52521.47;5048312;28;20659;-75
2021/01/18 09:06:02;;;;;;;24.93;14.30;;;;;;;-144.99;100.00;52541.84;5033039;28;20629;-77
2021/01/18 09:08:29;;;;;;;22.97;10.47;;;;;;;-144.99;100.00;52562.25;5031711;28;21023;-76
2021/01/18 09:10:57;;;;;;;16.53;9.03;;;;;;;-144.99;100.00;52533.69;5031783;28;20628;-76
2021/01/18 09:13:25;;;;;;;21.47;10.30;;;;;;;-144.99;100.00;52545.94;5022881;28;20718;-76
2021/01/18 09:15:52;;;;;;;19.27;8.80;;;;;;;-144.99;100.00;52566.31;5031711;28;21045;-77
2021/01/18 09:18:19;;;;;;;20.40;10.30;;;;;;;-144.99;100.00;52545.94;5029659;28;20647;-78
2021/01/18 09:20:46;;;;;;;22.47;8.90;;;;;;;-144.99;100.00;52513.31;5035263;28;20660;-76
2021/01/18 09:23:14;;;;;;;18.70;9.10;;;;;;;-144.99;100.00;52537.78;5033620;28;20656;-77
2021/01/18 09:25:41;;;;;;;18.47;9.47;;;;;;;-144.99;100.00;52525.56;5031435;28;20639;-77
2021/01/18 09:28:09;;;;;;;15.53;8.40;;;;;;;-144.99;100.00;52521.47;5031585;28;20655;-77
2021/01/18 09:30:37;;;;;;;19.30;9.60;;;;;;;-144.99;100.00;52541.84;5032082;28;20620;-76
2021/01/18 09:33:05;;;;;;;27.40;8.67;;;;;;;-144.99;100.00;52537.78;5031297;28;20657;-77
2021/01/18 09:35:32;;;;;;;16.93;8.20;;;;;;;-144.99;100.00;52562.25;5031667;28;20640;-76
2021/01/18 09:37:59;;;;;;;16.83;10.17;;;;;;;-144.99;100.00;52558.16;5028240;28;20777;-76
2021/01/18 09:40:27;;;;;;;20.17;9.13;;;;;;;-144.99;100.00;52525.56;5031843;28;20661;-77
2021/01/18 09:42:55;;;;;;;17.03;9.07;;;;;;;-144.99;100.00;52529.63;5032242;28;20629;-78
2021/01/18 09:45:22;;;;;;;17.30;7.90;;;;;;;-144.99;100.00;52517.41;5035827;28;20632;-78
2021/01/18 09:47:49;;;;;;;11.90;6.47;;;;;;;-144.99;100.00;52515.34;5040518;28;21146;-77
2021/01/18 09:50:17;;;;;;;14.93;9.57;;;;;;;-144.99;100.00;52521.47;5031118;28;20723;-78
2021/01/18 09:52:51;;;;;;;22.33;7.63;;;;;;;-144.99;100.00;52529.63;5027098;28;20678;-78
2021/01/18 09:55:20;;;;;;;14.73;8.93;;;;;;;-144.99;100.00;52529.63;5024067;28;20809;-76
2021/01/18 09:58:04;;;;;;;14.40;8.43;;;;;;;-144.99;100.00;52513.31;5029845;28;20629;-76
2021/01/18 10:00:32;;;;;;;17.47;6.50;;;;;;;-144.99;100.00;52529.63;5036613;28;20678;-77
2021/01/18 10:03:00;;;;;;;18.03;7.80;;;;;;;-144.99;100.00;52558.16;5030518;28;20644;-76
2021/01/18 10:05:32;;;;;;;12.00;9.20;;;;;;;-144.99;100.00;52525.56;5029469;28;20727;-77
2021/01/18 10:08:02;;;;;;;14.33;7.70;;;;;;;-144.99;100.00;52529.63;5030834;28;20627;-78
2021/01/18 10:10:29;;;;;;;18.13;8.47;;;;;;;-144.99;100.00;52529.63;5021759;28;20661;-76
2021/01/18 10:12:56;;;;;;;10.43;6.33;;;;;;;-144.99;100.00;52525.56;5034303;28;21267;-78
2021/01/18 10:15:25;;;;;;;19.57;8.00;;;;;;;-144.99;100.00;52488.84;5030437;28;20626;-79
2021/01/18 10:17:52;;;;;;;11.27;7.13;;;;;;;-144.99;100.00;52521.47;5026163;28;20621;-78
2021/01/18 10:20:28;;;;;;;19.23;9.00;;;;;;;-144.99;100.00;52513.31;5023239;28;20660;-79
2021/01/18 10:22:55;;;;;;;10.87;9.10;;;;;;;-144.99;100.00;52533.69;5031164;28;20639;-78
2021/01/18 10:25:27;;;;;;;12.73;7.90;;;;;;;-144.99;100.00;52529.63;5030979;28;20623;-78
2021/01/18 10:27:55;;;;;;;17.73;10.63;;;;;;;-144.99;100.00;52484.78;5024107;28;20625;-77
2021/01/18 10:30:26;;;;;;;16.83;10.40;;;;;;;-144.99;100.00;52497.00;5029726;28;20640;-77
2021/01/18 10:32:55;;;;;;;16.93;10.63;;;;;;;-144.99;100.00;52547.97;5028672;28;20632;-78
2021/01/18 10:35:30;;;;;;;16.93;9.67;;;;;;;-144.99;100.00;52513.31;5023798;28;20651;-78
2021/01/18 10:38:17;;;;;;;15.70;10.10;;;;;;;-144.99;100.00;52558.16;5035856;28;20657;-77
2021/01/18 10:40:59;;;;;;;14.50;9.97;;;;;;;-144.99;100.00;52541.84;5034041;28;20698;-79
2021/01/18 10:43:28;;;;;;;18.73;10.23;;;;;;;-144.99;100.00;52552.03;5034695;28;21038;-78
2021/01/18 10:45:56;;;;;;;18.90;10.13;;;;;;;-144.99;100.00;52541.84;5033751;28;20636;-77
2021/01/18 10:48:30;;;;;;;15.23;12.13;;;;;;;-144.99;100.00;52554.09;5033092;28;20608;-77
2021/01/18 10:50:59;;;;;;;19.90;11.77;;;;;;;-144.99;100.00;52533.69;5032188;28;20965;-77
2021/01/18 10:53:30;;;;;;;18.60;11.67;;;;;;;-144.99;100.00;52556.13;5033390;28;20648;-77
2021/01/18 10:56:16;;;;;;;17.23;12.47;;;;;;;-144.99;100.00;52541.84;5034680;28;20667;-77
2021/01/18 10:58:42;;;;;;;22.43;13.73;;;;;;;-144.99;100.00;52550.00;5032958;28;20613;-76
2021/01/18 11:01:11;;;;;;;27.97;19.33;;;;;;;-144.99;100.00;52574.47;5034633;28;20644;-77
2021/01/18 11:03:40;;;;;;;20.30;13.73;;;;;;;-144.99;100.00;52545.94;5030246;28;21106;-77
2021/01/18 11:06:11;;;;;;;19.97;13.27;;;;;;;-144.99;100.00;52537.78;5035046;28;21185;-76
2021/01/18 11:08:37;;;;;;;20.10;14.80;;;;;;;-144.99;100.00;52517.41;5035004;28;20731;-77
2021/01/18 11:11:16;;;;;;;18.33;13.83;;;;;;;-144.99;100.00;52497.00;5032796;28;20627;-78
2021/01/18 11:13:42;;;;;;;19.37;13.17;;;;;;;-144.99;100.00;52484.78;5032775;28;20656;-77